NKS9130 KDFW-KGYR
Flight info
| Callsign | NKS9130 |
|---|---|
| Flight time | 2h 20m |
| Altitude | 36000 |
| Route | WSTEX2 CIKAN EWM J4 SSO SUNSS8 |
| Aircraft | A320/M-SDE3FGHIRWY/LB1 |
Departure
| Time | 2026-05-06 00:58 |
|---|---|
| Airport | Dallas Fort Worth International Airport (KDFW) |
Arrival
| Time | 2026-05-06 03:19 |
|---|---|
| Airport | Phoenix Goodyear Airport (KGYR) |
| Time | Latitude | Longitude | Altitude | Speed | Heading |
|---|---|---|---|---|---|
| 2026-05-06 00:39 | 32.88766 | -97.03689 | 585 ft | 0 kts | 329° |
| 2026-05-06 00:48 | 32.88761 | -97.03685 | 584 ft | 4 kts | 334° |
| 2026-05-06 00:48 | 32.88740 | -97.03669 | 584 ft | 4 kts | 335° |
| 2026-05-06 00:48 | 32.88718 | -97.03663 | 584 ft | 4 kts | 29° |
| 2026-05-06 00:48 | 32.88710 | -97.03671 | 584 ft | 0 kts | 62° |
| 2026-05-06 00:51 | 32.88720 | -97.03640 | 584 ft | 7 kts | 77° |
| 2026-05-06 00:52 | 32.88700 | -97.03577 | 584 ft | 10 kts | 136° |
| 2026-05-06 00:52 | 32.88618 | -97.03569 | 584 ft | 14 kts | 210° |
| 2026-05-06 00:52 | 32.88602 | -97.03666 | 586 ft | 16 kts | 269° |
| 2026-05-06 00:52 | 32.88601 | -97.03817 | 595 ft | 18 kts | 269° |
| 2026-05-06 00:53 | 32.88606 | -97.03952 | 601 ft | 17 kts | 272° |
| 2026-05-06 00:53 | 32.88605 | -97.04129 | 601 ft | 25 kts | 270° |
| 2026-05-06 00:53 | 32.88606 | -97.04345 | 597 ft | 28 kts | 270° |
| 2026-05-06 00:53 | 32.88609 | -97.04592 | 590 ft | 31 kts | 271° |
| 2026-05-06 00:54 | 32.88551 | -97.04772 | 587 ft | 23 kts | 180° |
| 2026-05-06 00:54 | 32.88459 | -97.04813 | 589 ft | 11 kts | 176° |
| 2026-05-06 00:54 | 32.88387 | -97.04807 | 589 ft | 20 kts | 179° |
| 2026-05-06 00:54 | 32.88229 | -97.04812 | 587 ft | 24 kts | 180° |
| 2026-05-06 00:55 | 32.88058 | -97.04808 | 587 ft | 25 kts | 181° |
| 2026-05-06 00:55 | 32.87981 | -97.04858 | 587 ft | 11 kts | 258° |
| 2026-05-06 00:55 | 32.87984 | -97.04954 | 587 ft | 13 kts | 273° |
| 2026-05-06 00:55 | 32.87985 | -97.04985 | 587 ft | 0 kts | 272° |
| 2026-05-06 00:56 | 32.87985 | -97.04995 | 587 ft | 3 kts | 271° |
| 2026-05-06 00:57 | 32.87987 | -97.05042 | 588 ft | 8 kts | 273° |
| 2026-05-06 00:57 | 32.88023 | -97.05091 | 589 ft | 9 kts | 340° |
| 2026-05-06 00:57 | 32.88054 | -97.05093 | 590 ft | 0 kts | 1° |
| 2026-05-06 00:57 | 32.88162 | -97.05094 | 591 ft | 52 kts | 360° |
| 2026-05-06 00:58 | 32.88802 | -97.05092 | 586 ft | 128 kts | 0° |
| 2026-05-06 00:58 | 32.89843 | -97.05100 | 895 ft | 156 kts | 359° |
| 2026-05-06 00:58 | 32.90929 | -97.05105 | 1645 ft | 168 kts | 355° |
| 2026-05-06 00:58 | 32.92138 | -97.05055 | 2343 ft | 169 kts | 0° |
| 2026-05-06 00:59 | 32.93297 | -97.05067 | 2802 ft | 173 kts | 359° |
| 2026-05-06 00:59 | 32.94546 | -97.05130 | 3061 ft | 187 kts | 347° |
| 2026-05-06 00:59 | 32.95783 | -97.05748 | 3353 ft | 202 kts | 336° |
| 2026-05-06 00:59 | 32.97184 | -97.06385 | 3489 ft | 231 kts | 338° |
| 2026-05-06 01:00 | 32.98797 | -97.07001 | 3764 ft | 254 kts | 338° |
| 2026-05-06 01:00 | 33.00334 | -97.08066 | 4346 ft | 259 kts | 309° |
| 2026-05-06 01:00 | 33.01121 | -97.09962 | 4844 ft | 258 kts | 276° |
| 2026-05-06 01:00 | 33.01065 | -97.12063 | 5003 ft | 253 kts | 260° |
| 2026-05-06 01:01 | 33.00878 | -97.14163 | 5576 ft | 256 kts | 263° |
| 2026-05-06 01:01 | 33.00726 | -97.16279 | 6445 ft | 256 kts | 264° |
| 2026-05-06 01:01 | 33.00566 | -97.18409 | 7160 ft | 262 kts | 262° |
| 2026-05-06 01:01 | 33.00358 | -97.20578 | 7898 ft | 264 kts | 262° |
| 2026-05-06 01:02 | 33.00087 | -97.22744 | 8722 ft | 264 kts | 255° |
| 2026-05-06 01:02 | 32.99407 | -97.24771 | 9572 ft | 264 kts | 241° |
| 2026-05-06 01:02 | 32.98333 | -97.26551 | 10308 ft | 267 kts | 234° |
| 2026-05-06 01:02 | 32.97146 | -97.28365 | 10559 ft | 288 kts | 234° |
| 2026-05-06 01:03 | 32.95877 | -97.30324 | 10684 ft | 310 kts | 234° |
| 2026-05-06 01:03 | 32.94522 | -97.32424 | 10815 ft | 329 kts | 234° |
| 2026-05-06 01:03 | 32.93098 | -97.34625 | 11157 ft | 340 kts | 234° |
| 2026-05-06 01:03 | 32.91643 | -97.36868 | 11728 ft | 344 kts | 234° |
| 2026-05-06 01:04 | 32.90182 | -97.39120 | 12369 ft | 345 kts | 234° |
| 2026-05-06 01:04 | 32.88713 | -97.41385 | 13028 ft | 346 kts | 234° |
| 2026-05-06 01:04 | 32.87240 | -97.43652 | 13692 ft | 347 kts | 234° |
| 2026-05-06 01:04 | 32.85762 | -97.45920 | 14268 ft | 348 kts | 234° |
| 2026-05-06 01:05 | 32.84280 | -97.48197 | 14848 ft | 348 kts | 234° |
| 2026-05-06 01:05 | 32.82797 | -97.50475 | 15508 ft | 349 kts | 234° |
| 2026-05-06 01:05 | 32.81308 | -97.52757 | 16079 ft | 350 kts | 234° |
| 2026-05-06 01:05 | 32.79816 | -97.55042 | 16644 ft | 351 kts | 234° |
| 2026-05-06 01:06 | 32.78317 | -97.57341 | 17190 ft | 352 kts | 234° |
| 2026-05-06 01:06 | 32.76816 | -97.59642 | 17783 ft | 353 kts | 234° |
| 2026-05-06 01:06 | 32.75326 | -97.61924 | 18321 ft | 354 kts | 234° |
| 2026-05-06 01:06 | 32.73790 | -97.64268 | 18807 ft | 356 kts | 234° |
| 2026-05-06 01:07 | 32.72262 | -97.66592 | 19294 ft | 358 kts | 234° |
| 2026-05-06 01:07 | 32.70731 | -97.68926 | 19752 ft | 360 kts | 235° |
| 2026-05-06 01:07 | 32.69241 | -97.71321 | 20199 ft | 360 kts | 240° |
| 2026-05-06 01:07 | 32.68145 | -97.73988 | 20559 ft | 361 kts | 251° |
| 2026-05-06 01:08 | 32.67546 | -97.76891 | 20996 ft | 364 kts | 261° |
| 2026-05-06 01:08 | 32.67306 | -97.79888 | 21442 ft | 365 kts | 263° |
| 2026-05-06 01:08 | 32.67080 | -97.82858 | 21879 ft | 367 kts | 263° |
| 2026-05-06 01:08 | 32.66842 | -97.85915 | 22306 ft | 368 kts | 263° |
| 2026-05-06 01:09 | 32.66605 | -97.88912 | 22716 ft | 369 kts | 263° |
| 2026-05-06 01:09 | 32.66364 | -97.91949 | 23140 ft | 371 kts | 263° |
| 2026-05-06 01:09 | 32.66123 | -97.95005 | 23496 ft | 372 kts | 263° |
| 2026-05-06 01:09 | 32.65882 | -97.98067 | 23839 ft | 373 kts | 263° |
| 2026-05-06 01:10 | 32.65639 | -98.01137 | 24193 ft | 374 kts | 263° |
| 2026-05-06 01:10 | 32.65396 | -98.04213 | 24540 ft | 375 kts | 263° |
| 2026-05-06 01:10 | 32.65150 | -98.07295 | 24892 ft | 376 kts | 263° |
| 2026-05-06 01:10 | 32.64901 | -98.10387 | 25233 ft | 377 kts | 263° |
| 2026-05-06 01:11 | 32.64653 | -98.13487 | 25570 ft | 378 kts | 263° |
| 2026-05-06 01:11 | 32.64403 | -98.16589 | 25980 ft | 377 kts | 263° |
| 2026-05-06 01:11 | 32.64155 | -98.19676 | 26492 ft | 374 kts | 262° |
| 2026-05-06 01:11 | 32.63909 | -98.22733 | 27005 ft | 371 kts | 262° |
| 2026-05-06 01:12 | 32.63664 | -98.25770 | 27525 ft | 368 kts | 262° |
| 2026-05-06 01:12 | 32.63421 | -98.28787 | 28064 ft | 365 kts | 262° |
| 2026-05-06 01:12 | 32.63180 | -98.31777 | 28597 ft | 362 kts | 262° |
| 2026-05-06 01:12 | 32.62942 | -98.34742 | 29127 ft | 360 kts | 262° |
| 2026-05-06 01:13 | 32.62703 | -98.37686 | 29665 ft | 357 kts | 262° |
| 2026-05-06 01:13 | 32.62465 | -98.40603 | 30138 ft | 354 kts | 262° |
| 2026-05-06 01:13 | 32.62225 | -98.43505 | 30569 ft | 353 kts | 262° |
| 2026-05-06 01:13 | 32.61986 | -98.46395 | 30994 ft | 351 kts | 262° |
| 2026-05-06 01:14 | 32.61512 | -98.52130 | 31846 ft | 348 kts | 262° |
| 2026-05-06 01:14 | 32.61277 | -98.54989 | 32263 ft | 347 kts | 262° |
| 2026-05-06 01:14 | 32.61043 | -98.57831 | 32688 ft | 345 kts | 262° |
| 2026-05-06 01:15 | 32.60807 | -98.60660 | 33102 ft | 344 kts | 262° |
| 2026-05-06 01:15 | 32.60571 | -98.63477 | 33533 ft | 343 kts | 262° |
| 2026-05-06 01:15 | 32.60334 | -98.66286 | 33936 ft | 341 kts | 262° |
| 2026-05-06 01:15 | 32.60097 | -98.69082 | 34287 ft | 340 kts | 262° |
| 2026-05-06 01:16 | 32.59860 | -98.71863 | 34641 ft | 339 kts | 262° |
| 2026-05-06 01:16 | 32.59623 | -98.74632 | 35000 ft | 337 kts | 261° |
| 2026-05-06 01:16 | 32.59387 | -98.77389 | 35356 ft | 335 kts | 261° |
| 2026-05-06 01:16 | 32.59154 | -98.80126 | 35681 ft | 333 kts | 262° |
| 2026-05-06 01:17 | 32.58924 | -98.82823 | 35975 ft | 333 kts | 262° |
| 2026-05-06 01:17 | 32.58692 | -98.85563 | 36061 ft | 335 kts | 262° |
| 2026-05-06 01:17 | 32.58211 | -98.91149 | 36071 ft | 345 kts | 262° |
| 2026-05-06 01:18 | 32.57720 | -98.96827 | 36067 ft | 347 kts | 262° |
| 2026-05-06 01:18 | 32.57232 | -99.02517 | 36061 ft | 347 kts | 262° |
| 2026-05-06 01:19 | 32.56738 | -99.08208 | 36024 ft | 347 kts | 261° |
| 2026-05-06 01:19 | 32.56237 | -99.13903 | 36041 ft | 347 kts | 261° |
| 2026-05-06 01:20 | 32.55737 | -99.19600 | 36039 ft | 347 kts | 261° |
| 2026-05-06 01:20 | 32.55232 | -99.25290 | 36041 ft | 347 kts | 261° |
| 2026-05-06 01:21 | 32.54719 | -99.30984 | 36040 ft | 347 kts | 261° |
| 2026-05-06 01:21 | 32.54260 | -99.36686 | 36040 ft | 348 kts | 262° |
| 2026-05-06 01:22 | 32.53938 | -99.42410 | 36058 ft | 348 kts | 263° |
| 2026-05-06 01:22 | 32.53632 | -99.48103 | 36066 ft | 348 kts | 262° |
| 2026-05-06 01:23 | 32.53286 | -99.53886 | 36070 ft | 355 kts | 262° |
| 2026-05-06 01:23 | 32.52930 | -99.59755 | 36077 ft | 357 kts | 262° |
| 2026-05-06 01:24 | 32.52571 | -99.65631 | 36083 ft | 357 kts | 262° |
| 2026-05-06 01:24 | 32.52208 | -99.71506 | 36082 ft | 357 kts | 262° |
| 2026-05-06 01:25 | 32.51844 | -99.77380 | 36055 ft | 358 kts | 262° |
| 2026-05-06 01:25 | 32.51474 | -99.83257 | 36060 ft | 358 kts | 262° |
| 2026-05-06 01:26 | 32.51109 | -99.89076 | 36068 ft | 351 kts | 261° |
| 2026-05-06 01:26 | 32.50739 | -99.94832 | 36059 ft | 350 kts | 261° |
| 2026-05-06 01:27 | 32.50370 | -100.00585 | 36049 ft | 350 kts | 261° |
| 2026-05-06 01:27 | 32.49997 | -100.06345 | 36038 ft | 350 kts | 261° |
| 2026-05-06 01:28 | 32.49617 | -100.12111 | 36029 ft | 351 kts | 261° |
| 2026-05-06 01:28 | 32.49240 | -100.17864 | 36017 ft | 351 kts | 261° |
| 2026-05-06 01:29 | 32.48867 | -100.23605 | 36022 ft | 346 kts | 261° |
| 2026-05-06 01:29 | 32.48499 | -100.29252 | 36001 ft | 343 kts | 261° |
| 2026-05-06 01:30 | 32.48312 | -100.32066 | 36120 ft | 343 kts | 261° |
| 2026-05-06 01:30 | 32.48126 | -100.34887 | 36142 ft | 343 kts | 261° |
| 2026-05-06 01:30 | 32.47760 | -100.40481 | 36144 ft | 343 kts | 261° |
| 2026-05-06 01:31 | 32.47372 | -100.46111 | 36147 ft | 342 kts | 257° |
| 2026-05-06 01:31 | 32.46995 | -100.51741 | 36145 ft | 343 kts | 261° |
| 2026-05-06 01:32 | 32.46630 | -100.57380 | 36148 ft | 343 kts | 261° |
| 2026-05-06 01:32 | 32.46251 | -100.63017 | 36114 ft | 343 kts | 260° |
| 2026-05-06 01:33 | 32.45924 | -100.67741 | 36093 ft | 344 kts | 260° |
| 2026-05-06 01:33 | 32.45573 | -100.73389 | 36058 ft | 346 kts | 263° |
| 2026-05-06 01:34 | 32.45576 | -100.79070 | 36027 ft | 347 kts | 264° |
| 2026-05-06 01:34 | 32.45677 | -100.84798 | 36038 ft | 348 kts | 264° |
| 2026-05-06 01:35 | 32.45769 | -100.90523 | 36040 ft | 347 kts | 264° |
| 2026-05-06 01:35 | 32.45826 | -100.96245 | 36043 ft | 347 kts | 264° |
| 2026-05-06 01:36 | 32.45885 | -101.01962 | 36040 ft | 348 kts | 264° |
| 2026-05-06 01:36 | 32.45938 | -101.07685 | 36033 ft | 347 kts | 264° |
| 2026-05-06 01:37 | 32.45985 | -101.13410 | 36028 ft | 347 kts | 264° |
| 2026-05-06 01:37 | 32.46031 | -101.19131 | 36013 ft | 347 kts | 264° |
| 2026-05-06 01:38 | 32.46075 | -101.24859 | 35996 ft | 348 kts | 264° |
| 2026-05-06 01:38 | 32.46120 | -101.30580 | 35960 ft | 348 kts | 264° |
| 2026-05-06 01:39 | 32.46164 | -101.36310 | 35947 ft | 349 kts | 264° |
| 2026-05-06 01:39 | 32.46206 | -101.42062 | 35958 ft | 349 kts | 264° |
| 2026-05-06 01:40 | 32.46245 | -101.47823 | 35967 ft | 350 kts | 264° |
| 2026-05-06 01:40 | 32.46277 | -101.53596 | 35971 ft | 350 kts | 264° |
| 2026-05-06 01:41 | 32.46302 | -101.59367 | 35974 ft | 351 kts | 264° |
| 2026-05-06 01:41 | 32.46330 | -101.65143 | 35981 ft | 351 kts | 264° |
| 2026-05-06 01:42 | 32.46357 | -101.70921 | 35960 ft | 351 kts | 264° |
| 2026-05-06 01:42 | 32.46380 | -101.76682 | 35981 ft | 352 kts | 264° |
| 2026-05-06 01:43 | 32.46393 | -101.82493 | 35999 ft | 353 kts | 264° |
| 2026-05-06 01:43 | 32.46411 | -101.88323 | 36009 ft | 354 kts | 264° |
| 2026-05-06 01:44 | 32.46431 | -101.94157 | 36014 ft | 354 kts | 264° |
| 2026-05-06 01:44 | 32.46447 | -101.99990 | 36014 ft | 354 kts | 264° |
| 2026-05-06 01:45 | 32.46459 | -102.05822 | 35995 ft | 355 kts | 264° |
| 2026-05-06 01:45 | 32.46469 | -102.11674 | 35982 ft | 356 kts | 264° |
| 2026-05-06 01:46 | 32.46470 | -102.17536 | 35972 ft | 356 kts | 263° |
| 2026-05-06 01:46 | 32.46466 | -102.23410 | 35987 ft | 357 kts | 263° |
| 2026-05-06 01:47 | 32.46430 | -102.29279 | 36003 ft | 357 kts | 263° |
| 2026-05-06 01:47 | 32.46433 | -102.35158 | 36032 ft | 357 kts | 264° |
| 2026-05-06 01:48 | 32.46451 | -102.41046 | 36078 ft | 357 kts | 263° |
| 2026-05-06 01:48 | 32.46449 | -102.46923 | 36099 ft | 356 kts | 263° |
| 2026-05-06 01:49 | 32.46436 | -102.52789 | 36115 ft | 356 kts | 263° |
| 2026-05-06 01:49 | 32.46419 | -102.58648 | 36124 ft | 356 kts | 263° |
| 2026-05-06 01:50 | 32.46400 | -102.64471 | 36129 ft | 355 kts | 263° |
| 2026-05-06 01:50 | 32.46380 | -102.70324 | 36124 ft | 355 kts | 263° |
| 2026-05-06 01:51 | 32.46355 | -102.76690 | 36111 ft | 355 kts | 263° |
| 2026-05-06 01:51 | 32.46335 | -102.82535 | 36118 ft | 354 kts | 263° |
| 2026-05-06 01:52 | 32.46308 | -102.88332 | 36087 ft | 353 kts | 263° |
| 2026-05-06 01:52 | 32.46271 | -102.94147 | 36059 ft | 353 kts | 263° |
| 2026-05-06 01:53 | 32.46242 | -102.99011 | 36034 ft | 353 kts | 263° |
| 2026-05-06 01:53 | 32.46209 | -103.04817 | 36027 ft | 352 kts | 263° |
| 2026-05-06 01:54 | 32.46173 | -103.10619 | 36023 ft | 352 kts | 263° |
| 2026-05-06 01:54 | 32.46131 | -103.16422 | 36105 ft | 352 kts | 263° |
| 2026-05-06 01:55 | 32.46088 | -103.22174 | 36099 ft | 350 kts | 263° |
| 2026-05-06 01:55 | 32.46044 | -103.27971 | 36091 ft | 350 kts | 263° |
| 2026-05-06 01:56 | 32.45990 | -103.33735 | 36078 ft | 350 kts | 263° |
| 2026-05-06 01:56 | 32.45934 | -103.39505 | 36063 ft | 350 kts | 263° |
| 2026-05-06 01:57 | 32.45879 | -103.45272 | 36045 ft | 351 kts | 263° |
| 2026-05-06 01:57 | 32.45825 | -103.51011 | 36041 ft | 351 kts | 262° |
| 2026-05-06 01:58 | 32.45768 | -103.56786 | 36022 ft | 351 kts | 262° |
| 2026-05-06 01:58 | 32.45710 | -103.62547 | 36018 ft | 351 kts | 262° |
| 2026-05-06 01:59 | 32.45642 | -103.68330 | 36013 ft | 351 kts | 262° |
| 2026-05-06 01:59 | 32.45575 | -103.74107 | 36011 ft | 351 kts | 262° |
| 2026-05-06 02:00 | 32.45503 | -103.79883 | 36007 ft | 351 kts | 262° |
| 2026-05-06 02:00 | 32.45429 | -103.85669 | 36007 ft | 351 kts | 262° |
| 2026-05-06 02:01 | 32.45355 | -103.91442 | 36002 ft | 351 kts | 262° |
| 2026-05-06 02:01 | 32.45280 | -103.97221 | 35995 ft | 351 kts | 262° |
| 2026-05-06 02:02 | 32.45196 | -104.03008 | 35996 ft | 351 kts | 262° |
| 2026-05-06 02:02 | 32.45107 | -104.08795 | 35993 ft | 351 kts | 262° |
| 2026-05-06 02:03 | 32.45017 | -104.14592 | 35995 ft | 352 kts | 262° |
| 2026-05-06 02:03 | 32.44935 | -104.20384 | 35997 ft | 352 kts | 262° |
| 2026-05-06 02:04 | 32.44844 | -104.26189 | 35958 ft | 353 kts | 262° |
| 2026-05-06 02:04 | 32.44745 | -104.31983 | 35961 ft | 355 kts | 262° |
| 2026-05-06 02:05 | 32.44647 | -104.37871 | 35971 ft | 356 kts | 262° |
| 2026-05-06 02:05 | 32.44553 | -104.43729 | 35976 ft | 356 kts | 262° |
| 2026-05-06 02:06 | 32.44456 | -104.49559 | 35985 ft | 356 kts | 262° |
| 2026-05-06 02:06 | 32.44348 | -104.55428 | 36001 ft | 357 kts | 262° |
| 2026-05-06 02:07 | 32.44234 | -104.61338 | 36002 ft | 357 kts | 262° |
| 2026-05-06 02:07 | 32.44117 | -104.67209 | 36019 ft | 357 kts | 262° |
| 2026-05-06 02:08 | 32.44002 | -104.73081 | 36023 ft | 357 kts | 262° |
| 2026-05-06 02:08 | 32.43884 | -104.78933 | 36025 ft | 357 kts | 262° |
| 2026-05-06 02:09 | 32.43764 | -104.84811 | 36016 ft | 357 kts | 262° |
| 2026-05-06 02:09 | 32.43640 | -104.90698 | 36026 ft | 357 kts | 262° |
| 2026-05-06 02:10 | 32.43522 | -104.96568 | 36053 ft | 356 kts | 262° |
| 2026-05-06 02:10 | 32.43396 | -105.02413 | 36045 ft | 355 kts | 262° |
| 2026-05-06 02:11 | 32.43261 | -105.08260 | 36045 ft | 355 kts | 262° |
| 2026-05-06 02:11 | 32.43129 | -105.14118 | 36042 ft | 356 kts | 262° |
| 2026-05-06 02:12 | 32.42993 | -105.19971 | 36041 ft | 355 kts | 261° |
| 2026-05-06 02:12 | 32.42854 | -105.25783 | 36044 ft | 355 kts | 261° |
| 2026-05-06 02:13 | 32.42710 | -105.31628 | 36058 ft | 352 kts | 261° |
| 2026-05-06 02:13 | 32.42574 | -105.37403 | 36050 ft | 350 kts | 261° |
| 2026-05-06 02:14 | 32.42435 | -105.43168 | 36053 ft | 350 kts | 261° |
| 2026-05-06 02:14 | 32.42288 | -105.48937 | 36055 ft | 351 kts | 261° |
| 2026-05-06 02:15 | 32.42135 | -105.54719 | 36057 ft | 351 kts | 261° |
| 2026-05-06 02:15 | 32.41978 | -105.60501 | 36057 ft | 351 kts | 261° |
| 2026-05-06 02:16 | 32.41818 | -105.66289 | 36064 ft | 352 kts | 261° |
| 2026-05-06 02:16 | 32.41664 | -105.72076 | 36061 ft | 352 kts | 261° |
| 2026-05-06 02:17 | 32.41503 | -105.77868 | 36060 ft | 352 kts | 261° |
| 2026-05-06 02:17 | 32.41331 | -105.83654 | 36052 ft | 352 kts | 261° |
| 2026-05-06 02:18 | 32.41170 | -105.89447 | 36055 ft | 352 kts | 261° |
| 2026-05-06 02:18 | 32.41016 | -105.94967 | 36041 ft | 352 kts | 261° |
| 2026-05-06 02:19 | 32.40845 | -106.00766 | 36046 ft | 352 kts | 261° |
| 2026-05-06 02:19 | 32.40665 | -106.06565 | 36042 ft | 353 kts | 261° |
| 2026-05-06 02:20 | 32.40392 | -106.15279 | 36033 ft | 354 kts | 261° |
| 2026-05-06 02:21 | 32.40215 | -106.21064 | 36029 ft | 354 kts | 261° |
| 2026-05-06 02:21 | 32.40030 | -106.26892 | 36028 ft | 354 kts | 261° |
| 2026-05-06 02:22 | 32.39847 | -106.32709 | 36029 ft | 354 kts | 261° |
| 2026-05-06 02:22 | 32.39657 | -106.38536 | 36031 ft | 354 kts | 260° |
| 2026-05-06 02:23 | 32.39464 | -106.44371 | 36026 ft | 355 kts | 260° |
| 2026-05-06 02:23 | 32.39269 | -106.50215 | 36023 ft | 356 kts | 260° |
| 2026-05-06 02:24 | 32.39071 | -106.56072 | 36022 ft | 357 kts | 261° |
| 2026-05-06 02:24 | 32.38868 | -106.61948 | 36016 ft | 357 kts | 260° |
| 2026-05-06 02:25 | 32.38665 | -106.67810 | 36021 ft | 356 kts | 260° |
| 2026-05-06 02:25 | 32.38452 | -106.73670 | 36033 ft | 357 kts | 260° |
| 2026-05-06 02:26 | 32.38242 | -106.79547 | 36027 ft | 357 kts | 260° |
| 2026-05-06 02:26 | 32.38029 | -106.85421 | 36024 ft | 357 kts | 260° |
| 2026-05-06 02:27 | 32.37811 | -106.91304 | 36023 ft | 358 kts | 260° |
| 2026-05-06 02:27 | 32.37593 | -106.97181 | 36022 ft | 358 kts | 260° |
| 2026-05-06 02:28 | 32.37374 | -107.03059 | 36022 ft | 358 kts | 260° |
| 2026-05-06 02:28 | 32.37147 | -107.08942 | 36039 ft | 358 kts | 259° |
| 2026-05-06 02:29 | 32.36920 | -107.14815 | 36032 ft | 358 kts | 259° |
| 2026-05-06 02:29 | 32.36697 | -107.20658 | 36034 ft | 357 kts | 259° |
| 2026-05-06 02:30 | 32.36465 | -107.26535 | 36034 ft | 357 kts | 259° |
| 2026-05-06 02:30 | 32.36228 | -107.32410 | 36032 ft | 357 kts | 259° |
| 2026-05-06 02:31 | 32.35986 | -107.38278 | 36034 ft | 357 kts | 259° |
| 2026-05-06 02:31 | 32.35748 | -107.44149 | 36048 ft | 357 kts | 259° |
| 2026-05-06 02:32 | 32.35505 | -107.50025 | 36047 ft | 357 kts | 259° |
| 2026-05-06 02:32 | 32.35260 | -107.55891 | 36043 ft | 357 kts | 259° |
| 2026-05-06 02:33 | 32.35015 | -107.61760 | 36042 ft | 357 kts | 259° |
| 2026-05-06 02:33 | 32.34932 | -107.63703 | 36041 ft | 357 kts | 259° |
| 2026-05-06 02:34 | 32.34501 | -107.73501 | 36044 ft | 357 kts | 259° |
| 2026-05-06 02:34 | 32.34371 | -107.76433 | 36214 ft | 357 kts | 259° |
| 2026-05-06 02:34 | 32.34240 | -107.79366 | 36206 ft | 357 kts | 259° |
| 2026-05-06 02:34 | 32.34114 | -107.82269 | 36045 ft | 358 kts | 259° |
| 2026-05-06 02:35 | 32.33987 | -107.85203 | 36039 ft | 358 kts | 259° |
| 2026-05-06 02:35 | 32.33727 | -107.91082 | 36041 ft | 358 kts | 259° |
| 2026-05-06 02:36 | 32.33457 | -107.96958 | 36039 ft | 358 kts | 259° |
| 2026-05-06 02:36 | 32.33190 | -108.02831 | 36046 ft | 358 kts | 259° |
| 2026-05-06 02:37 | 32.32922 | -108.08714 | 36046 ft | 358 kts | 259° |
| 2026-05-06 02:37 | 32.32652 | -108.14594 | 36047 ft | 358 kts | 259° |
| 2026-05-06 02:38 | 32.32379 | -108.20476 | 36048 ft | 358 kts | 259° |
| 2026-05-06 02:38 | 32.32098 | -108.26349 | 36048 ft | 358 kts | 259° |
| 2026-05-06 02:39 | 32.31813 | -108.32224 | 36081 ft | 358 kts | 259° |
| 2026-05-06 02:39 | 32.31527 | -108.38110 | 36132 ft | 358 kts | 259° |
| 2026-05-06 02:40 | 32.31242 | -108.43984 | 36175 ft | 358 kts | 259° |
| 2026-05-06 02:40 | 32.30955 | -108.49834 | 36172 ft | 356 kts | 259° |
| 2026-05-06 02:41 | 32.30708 | -108.54699 | 36189 ft | 360 kts | 259° |
| 2026-05-06 02:41 | 32.30395 | -108.60680 | 36228 ft | 367 kts | 259° |
| 2026-05-06 02:42 | 32.30089 | -108.66711 | 36230 ft | 368 kts | 259° |
| 2026-05-06 02:42 | 32.29790 | -108.72757 | 36228 ft | 368 kts | 259° |
| 2026-05-06 02:42 | 32.29639 | -108.75742 | 36037 ft | 368 kts | 259° |
| 2026-05-06 02:43 | 32.29482 | -108.78795 | 36061 ft | 368 kts | 259° |
| 2026-05-06 02:43 | 32.29170 | -108.84832 | 36058 ft | 368 kts | 259° |
| 2026-05-06 02:44 | 32.28853 | -108.90830 | 36055 ft | 368 kts | 259° |
| 2026-05-06 02:44 | 32.28534 | -108.96873 | 36053 ft | 368 kts | 259° |
| 2026-05-06 02:45 | 32.28209 | -109.02915 | 36055 ft | 368 kts | 259° |
| 2026-05-06 02:45 | 32.27880 | -109.08953 | 36054 ft | 368 kts | 259° |
| 2026-05-06 02:46 | 32.27549 | -109.14990 | 36051 ft | 368 kts | 259° |
| 2026-05-06 02:46 | 32.27383 | -109.17997 | 35906 ft | 367 kts | 259° |
| 2026-05-06 02:46 | 32.27217 | -109.21005 | 35880 ft | 367 kts | 259° |
| 2026-05-06 02:47 | 32.27193 | -109.27074 | 35894 ft | 380 kts | 270° |
| 2026-05-06 02:47 | 32.28595 | -109.33218 | 35888 ft | 389 kts | 275° |
| 2026-05-06 02:48 | 32.30128 | -109.39360 | 35884 ft | 389 kts | 275° |
| 2026-05-06 02:48 | 32.31629 | -109.45500 | 35889 ft | 389 kts | 275° |
| 2026-05-06 02:49 | 32.33116 | -109.51648 | 35918 ft | 389 kts | 275° |
| 2026-05-06 02:49 | 32.34604 | -109.57796 | 35916 ft | 388 kts | 275° |
| 2026-05-06 02:50 | 32.36091 | -109.63943 | 35914 ft | 388 kts | 275° |
| 2026-05-06 02:50 | 32.37579 | -109.70085 | 35956 ft | 388 kts | 275° |
| 2026-05-06 02:51 | 32.39058 | -109.76219 | 35928 ft | 387 kts | 275° |
| 2026-05-06 02:51 | 32.40525 | -109.82353 | 35940 ft | 388 kts | 275° |
| 2026-05-06 02:52 | 32.41999 | -109.88504 | 35934 ft | 389 kts | 275° |
| 2026-05-06 02:52 | 32.43466 | -109.94628 | 35947 ft | 389 kts | 275° |
| 2026-05-06 02:53 | 32.44948 | -110.00831 | 35948 ft | 389 kts | 275° |
| 2026-05-06 02:53 | 32.46416 | -110.07008 | 35952 ft | 390 kts | 275° |
| 2026-05-06 02:54 | 32.47883 | -110.13188 | 35962 ft | 390 kts | 275° |
| 2026-05-06 02:54 | 32.49341 | -110.19333 | 35974 ft | 390 kts | 275° |
| 2026-05-06 02:55 | 32.50805 | -110.25528 | 35967 ft | 390 kts | 275° |
| 2026-05-06 02:55 | 32.52264 | -110.31733 | 35416 ft | 390 kts | 275° |
| 2026-05-06 02:55 | 32.52994 | -110.34824 | 34790 ft | 390 kts | 275° |
| 2026-05-06 02:56 | 32.53722 | -110.37913 | 34447 ft | 387 kts | 275° |
| 2026-05-06 02:56 | 32.54668 | -110.40960 | 34213 ft | 406 kts | 285° |
| 2026-05-06 02:56 | 32.56057 | -110.43909 | 33988 ft | 411 kts | 287° |
| 2026-05-06 02:56 | 32.57481 | -110.46860 | 33742 ft | 413 kts | 287° |
| 2026-05-06 02:57 | 32.58920 | -110.49809 | 33504 ft | 413 kts | 287° |
| 2026-05-06 02:57 | 32.60362 | -110.52756 | 33249 ft | 414 kts | 287° |
| 2026-05-06 02:57 | 32.61805 | -110.55717 | 32987 ft | 414 kts | 287° |
| 2026-05-06 02:57 | 32.63241 | -110.58682 | 32729 ft | 415 kts | 287° |
| 2026-05-06 02:58 | 32.64676 | -110.61653 | 32474 ft | 415 kts | 287° |
| 2026-05-06 02:58 | 32.66107 | -110.64630 | 32223 ft | 415 kts | 287° |
| 2026-05-06 02:58 | 32.67538 | -110.67615 | 31971 ft | 416 kts | 287° |
| 2026-05-06 02:58 | 32.68967 | -110.70600 | 31717 ft | 416 kts | 287° |
| 2026-05-06 02:59 | 32.70385 | -110.73541 | 31473 ft | 406 kts | 287° |
| 2026-05-06 02:59 | 32.71780 | -110.76433 | 31263 ft | 402 kts | 287° |
| 2026-05-06 02:59 | 32.73158 | -110.79311 | 30986 ft | 401 kts | 287° |
| 2026-05-06 02:59 | 32.74536 | -110.82197 | 30523 ft | 401 kts | 287° |
| 2026-05-06 03:00 | 32.75909 | -110.85074 | 29975 ft | 399 kts | 287° |
| 2026-05-06 03:00 | 32.77282 | -110.87951 | 29313 ft | 401 kts | 287° |
| 2026-05-06 03:00 | 32.78661 | -110.90852 | 28661 ft | 404 kts | 287° |
| 2026-05-06 03:00 | 32.80046 | -110.93766 | 28027 ft | 406 kts | 287° |
| 2026-05-06 03:01 | 32.81441 | -110.96702 | 27409 ft | 409 kts | 288° |
| 2026-05-06 03:01 | 32.82845 | -110.99655 | 26795 ft | 411 kts | 288° |
| 2026-05-06 03:01 | 32.84259 | -111.02622 | 26196 ft | 413 kts | 289° |
| 2026-05-06 03:01 | 32.85685 | -111.05610 | 25621 ft | 415 kts | 289° |
| 2026-05-06 03:02 | 32.87110 | -111.08606 | 25050 ft | 418 kts | 289° |
| 2026-05-06 03:02 | 32.88548 | -111.11629 | 24481 ft | 420 kts | 289° |
| 2026-05-06 03:02 | 32.89985 | -111.14645 | 23987 ft | 418 kts | 290° |
| 2026-05-06 03:02 | 32.91419 | -111.17652 | 23450 ft | 417 kts | 291° |
| 2026-05-06 03:03 | 32.93169 | -111.20456 | 22787 ft | 429 kts | 302° |
| 2026-05-06 03:03 | 32.95039 | -111.23181 | 22140 ft | 421 kts | 298° |
| 2026-05-06 03:03 | 32.96720 | -111.25941 | 21509 ft | 400 kts | 297° |
| 2026-05-06 03:03 | 32.98292 | -111.28560 | 20892 ft | 377 kts | 297° |
| 2026-05-06 03:04 | 32.99776 | -111.31063 | 20290 ft | 365 kts | 297° |
| 2026-05-06 03:04 | 33.01209 | -111.33540 | 19699 ft | 362 kts | 297° |
| 2026-05-06 03:04 | 33.02609 | -111.36025 | 19118 ft | 361 kts | 297° |
| 2026-05-06 03:04 | 33.03978 | -111.38527 | 18547 ft | 360 kts | 297° |
| 2026-05-06 03:05 | 33.05319 | -111.41050 | 17956 ft | 359 kts | 297° |
| 2026-05-06 03:05 | 33.06635 | -111.43572 | 17312 ft | 358 kts | 297° |
| 2026-05-06 03:05 | 33.07941 | -111.46088 | 16682 ft | 356 kts | 297° |
| 2026-05-06 03:05 | 33.09230 | -111.48599 | 16072 ft | 354 kts | 297° |
| 2026-05-06 03:06 | 33.10496 | -111.51098 | 15456 ft | 350 kts | 297° |
| 2026-05-06 03:06 | 33.11748 | -111.53580 | 14872 ft | 348 kts | 297° |
| 2026-05-06 03:06 | 33.12991 | -111.56051 | 14280 ft | 346 kts | 297° |
| 2026-05-06 03:06 | 33.14225 | -111.58509 | 13764 ft | 344 kts | 297° |
| 2026-05-06 03:07 | 33.15457 | -111.60965 | 13139 ft | 349 kts | 297° |
| 2026-05-06 03:07 | 33.16700 | -111.63462 | 12514 ft | 351 kts | 297° |
| 2026-05-06 03:07 | 33.17928 | -111.65950 | 11906 ft | 350 kts | 297° |
| 2026-05-06 03:07 | 33.19171 | -111.68489 | 11289 ft | 349 kts | 297° |
| 2026-05-06 03:08 | 33.20385 | -111.70987 | 10698 ft | 347 kts | 297° |
| 2026-05-06 03:08 | 33.21585 | -111.73475 | 10121 ft | 345 kts | 297° |
| 2026-05-06 03:08 | 33.22776 | -111.75957 | 9519 ft | 343 kts | 297° |
| 2026-05-06 03:08 | 33.23949 | -111.78417 | 8892 ft | 339 kts | 297° |
| 2026-05-06 03:09 | 33.25083 | -111.80823 | 8399 ft | 333 kts | 298° |
| 2026-05-06 03:09 | 33.26191 | -111.83240 | 7952 ft | 330 kts | 297° |
| 2026-05-06 03:09 | 33.27279 | -111.85643 | 7499 ft | 327 kts | 297° |
| 2026-05-06 03:09 | 33.28353 | -111.88012 | 7057 ft | 323 kts | 297° |
| 2026-05-06 03:10 | 33.29422 | -111.90370 | 6622 ft | 321 kts | 297° |
| 2026-05-06 03:10 | 33.30486 | -111.92696 | 6175 ft | 317 kts | 297° |
| 2026-05-06 03:10 | 33.31535 | -111.94985 | 5712 ft | 308 kts | 297° |
| 2026-05-06 03:10 | 33.32534 | -111.97174 | 5271 ft | 293 kts | 297° |
| 2026-05-06 03:11 | 33.33513 | -111.99302 | 4963 ft | 291 kts | 299° |
| 2026-05-06 03:11 | 33.34581 | -112.01295 | 4640 ft | 276 kts | 303° |
| 2026-05-06 03:11 | 33.35616 | -112.03151 | 4308 ft | 261 kts | 302° |
| 2026-05-06 03:11 | 33.36614 | -112.04904 | 3989 ft | 249 kts | 302° |
| 2026-05-06 03:12 | 33.37581 | -112.06572 | 3614 ft | 240 kts | 302° |
| 2026-05-06 03:12 | 33.38519 | -112.08182 | 3243 ft | 231 kts | 302° |
| 2026-05-06 03:12 | 33.39399 | -112.09719 | 3022 ft | 216 kts | 300° |
| 2026-05-06 03:12 | 33.40181 | -112.11223 | 2940 ft | 213 kts | 298° |
| 2026-05-06 03:13 | 33.40945 | -112.12747 | 2939 ft | 214 kts | 297° |
| 2026-05-06 03:13 | 33.41708 | -112.14283 | 2953 ft | 214 kts | 298° |
| 2026-05-06 03:13 | 33.42469 | -112.15816 | 2956 ft | 212 kts | 297° |
| 2026-05-06 03:13 | 33.43223 | -112.17325 | 2947 ft | 211 kts | 298° |
| 2026-05-06 03:14 | 33.43979 | -112.18816 | 2924 ft | 205 kts | 298° |
| 2026-05-06 03:14 | 33.44680 | -112.20210 | 2891 ft | 188 kts | 297° |
| 2026-05-06 03:14 | 33.45338 | -112.21524 | 2759 ft | 181 kts | 296° |
| 2026-05-06 03:14 | 33.45974 | -112.22803 | 2615 ft | 176 kts | 296° |
| 2026-05-06 03:15 | 33.46578 | -112.24010 | 2462 ft | 163 kts | 296° |
| 2026-05-06 03:15 | 33.47140 | -112.25137 | 2490 ft | 156 kts | 295° |
| 2026-05-06 03:15 | 33.47693 | -112.26250 | 2486 ft | 154 kts | 295° |
| 2026-05-06 03:15 | 33.48256 | -112.27345 | 2468 ft | 156 kts | 288° |
| 2026-05-06 03:16 | 33.48839 | -112.28427 | 2492 ft | 152 kts | 295° |
| 2026-05-06 03:16 | 33.49363 | -112.29501 | 2418 ft | 146 kts | 291° |
| 2026-05-06 03:16 | 33.49452 | -112.30640 | 2299 ft | 137 kts | 249° |
| 2026-05-06 03:16 | 33.48833 | -112.31478 | 2184 ft | 140 kts | 218° |
| 2026-05-06 03:17 | 33.48058 | -112.32186 | 2057 ft | 140 kts | 218° |
| 2026-05-06 03:17 | 33.47283 | -112.32915 | 1902 ft | 144 kts | 204° |
| 2026-05-06 03:17 | 33.46506 | -112.33694 | 1811 ft | 146 kts | 215° |
| 2026-05-06 03:17 | 33.45709 | -112.34419 | 1673 ft | 144 kts | 208° |
| 2026-05-06 03:18 | 33.44904 | -112.35128 | 1469 ft | 145 kts | 211° |
| 2026-05-06 03:18 | 33.44113 | -112.35881 | 1277 ft | 142 kts | 214° |
| 2026-05-06 03:18 | 33.43327 | -112.36613 | 1067 ft | 143 kts | 210° |
| 2026-05-06 03:18 | 33.42563 | -112.37320 | 983 ft | 127 kts | 218° |
| 2026-05-06 03:19 | 33.42002 | -112.37851 | 956 ft | 82 kts | 220° |
| 2026-05-06 03:19 | 33.41808 | -112.38037 | 957 ft | 28 kts | 213° |
| 2026-05-06 03:19 | 33.41680 | -112.38140 | 958 ft | 18 kts | 216° |
| 2026-05-06 03:19 | 33.41601 | -112.38216 | 954 ft | 14 kts | 216° |
| 2026-05-06 03:20 | 33.41432 | -112.38239 | 950 ft | 14 kts | 105° |
| 2026-05-06 03:20 | 33.41488 | -112.38153 | 953 ft | 14 kts | 41° |
| 2026-05-06 03:20 | 33.41569 | -112.38076 | 953 ft | 16 kts | 37° |
| 2026-05-06 03:21 | 33.41667 | -112.37986 | 956 ft | 20 kts | 37° |
| 2026-05-06 03:21 | 33.41786 | -112.37880 | 955 ft | 22 kts | 38° |
| 2026-05-06 03:21 | 33.41910 | -112.37761 | 954 ft | 24 kts | 39° |
| 2026-05-06 03:21 | 33.42045 | -112.37631 | 956 ft | 25 kts | 39° |
| 2026-05-06 03:22 | 33.42184 | -112.37501 | 961 ft | 26 kts | 37° |
| 2026-05-06 03:22 | 33.42330 | -112.37376 | 966 ft | 25 kts | 36° |
| 2026-05-06 03:22 | 33.42470 | -112.37239 | 969 ft | 27 kts | 40° |
| 2026-05-06 03:22 | 33.42622 | -112.37095 | 978 ft | 29 kts | 37° |
| 2026-05-06 03:23 | 33.42755 | -112.36986 | 969 ft | 11 kts | 4° |
| 2026-05-06 03:23 | 33.42774 | -112.36991 | 980 ft | 0 kts | 341° |
| 2026-05-06 03:24 | 33.42778 | -112.36994 | 979 ft | 0 kts | 326° |
| 2026-05-06 03:24 | 33.42793 | -112.37008 | 978 ft | 9 kts | 317° |
| 2026-05-06 03:25 | 33.42864 | -112.37106 | 977 ft | 19 kts | 310° |
| 2026-05-06 03:25 | 33.42925 | -112.37194 | 983 ft | 11 kts | 306° |
| 2026-05-06 03:25 | 33.42930 | -112.37246 | 978 ft | 7 kts | 240° |
| 2026-05-06 03:25 | 33.42908 | -112.37300 | 974 ft | 8 kts | 262° |
| 2026-05-06 03:26 | 33.42911 | -112.37365 | 977 ft | 8 kts | 289° |
| 2026-05-06 03:26 | 33.42947 | -112.37403 | 981 ft | 7 kts | 326° |
| 2026-05-06 03:26 | 33.42947 | -112.37444 | 979 ft | 4 kts | 234° |
| 2026-05-06 03:26 | 33.42922 | -112.37456 | 979 ft | 2 kts | 162° |
| 2026-05-06 03:27 | 33.42922 | -112.37455 | 979 ft | 0 kts | 160° |